Hambletville, New York
Current Conditions -  °F | °C
As of 4:53 PM on Thursday 18 Dec 2014 (Local Time) from KBGM Reporting Station
Haze Haze  
Wind Chill: 20°   Ceiling: 400
Heat Index: 29°   Visibility: 3mi
Dew Point: 28°   Wind: 9mph
Humidity: 96%   Direction: 290°WNW
Pressure: 29.96"   Gusts: NA
Location:  42.0783°N, 75.4419°W
Report Text: KBGM 182153Z 29008KT 3SM BR OVC004 M02/M02 A2996 RMK AO2 CIG 003V008 SLP165 T10171022 $
Loading
Personal Weather Stations






























Interactive Weather Map New forecast layout! Learn more

10-Day Weather Forecast

Advertisements
Track Severe Weather on mobile